Time;durP1;ratioP1;P1;durP2;ratioP2;P2;SDS_P1;SDS_P2;PMS_P1;PMS_P2;Temp;Humidity;BMP_temperature;BMP_pressure;BME280_temperature;BME280_humidity;BME280_pressure;Samples;Min_cycle;Max_cycle;Signal;HPM_P1;HPM_P2
2023/09/17 00:01:12;;;;;;;19.13;11.57;;;;;;;17.86;95.87;101260.94;5015082;28;20057;-82
2023/09/17 00:03:40;;;;;;;17.90;10.00;;;;;;;17.91;95.54;101266.03;5016248;28;20148;-81
2023/09/17 00:06:06;;;;;;;14.27;8.02;;;;;;;17.89;95.28;101260.84;5015689;28;20487;-81
2023/09/17 00:08:35;;;;;;;16.48;9.02;;;;;;;17.82;93.96;101263.75;5014952;28;20034;-82
2023/09/17 00:11:03;;;;;;;16.73;8.90;;;;;;;17.80;94.04;101261.19;5015929;28;20022;-81
2023/09/17 00:13:29;;;;;;;15.10;8.25;;;;;;;17.76;94.55;101251.72;5015891;28;20042;-81
2023/09/17 00:15:55;;;;;;;15.57;8.75;;;;;;;17.66;92.63;101243.38;5014858;28;20026;-81
2023/09/17 00:18:20;;;;;;;14.13;8.13;;;;;;;17.69;92.36;101243.22;5015052;28;20045;-81
2023/09/17 00:20:46;;;;;;;15.93;8.27;;;;;;;17.67;92.70;101239.84;5015619;28;20026;-81
2023/09/17 00:23:14;;;;;;;15.80;8.70;;;;;;;17.58;90.90;101229.66;5014717;28;20478;-81
2023/09/17 00:25:40;;;;;;;14.98;8.40;;;;;;;17.53;90.64;101229.84;5015683;28;20080;-81
2023/09/17 00:28:09;;;;;;;16.35;7.95;;;;;;;17.51;88.87;101229.03;5014622;28;20535;-81
2023/09/17 00:30:34;;;;;;;15.38;9.00;;;;;;;17.46;88.81;101225.75;5016038;28;20038;-81
2023/09/17 00:33:02;;;;;;;14.67;7.90;;;;;;;17.42;89.70;101229.41;5015400;28;20026;-81
2023/09/17 00:35:27;;;;;;;13.98;7.80;;;;;;;17.43;89.63;101242.47;5015024;28;20065;-81
2023/09/17 00:37:59;;;;;;;13.83;7.70;;;;;;;17.40;89.35;101239.09;5015516;28;20478;-81
2023/09/17 00:40:28;;;;;;;15.43;7.95;;;;;;;17.38;89.59;101254.06;5015098;28;20109;-81
2023/09/17 00:42:54;;;;;;;14.43;7.80;;;;;;;17.32;88.73;101251.66;5014531;28;20352;-81
2023/09/17 00:45:19;;;;;;;12.93;7.50;;;;;;;17.30;90.25;101264.84;5014787;28;20037;-81
2023/09/17 00:47:44;;;;;;;13.50;7.40;;;;;;;17.19;90.17;101253.88;5015495;28;20038;-81
2023/09/17 00:50:10;;;;;;;14.60;8.30;;;;;;;17.18;90.76;101258.25;5013973;28;20022;-83
2023/09/17 00:52:36;;;;;;;16.42;8.68;;;;;;;16.97;93.38;101247.63;5015064;28;20021;-82
2023/09/17 00:55:03;;;;;;;16.08;8.95;;;;;;;16.88;93.56;101242.69;5015050;28;20376;-82
2023/09/17 00:57:32;;;;;;;14.30;8.10;;;;;;;16.81;94.96;101233.34;5014280;28;20152;-81
2023/09/17 00:59:58;;;;;;;13.27;7.80;;;;;;;16.75;94.90;101242.28;5015334;28;20057;-81
2023/09/17 01:02:26;;;;;;;15.53;8.73;;;;;;;16.60;96.03;101246.28;5014699;28;20080;-81
2023/09/17 01:04:52;;;;;;;13.15;7.95;;;;;;;16.59;95.50;101235.84;5014509;28;20025;-81
2023/09/17 01:07:19;;;;;;;13.18;7.50;;;;;;;16.51;98.83;101238.72;5014967;28;20025;-81
2023/09/17 01:09:45;;;;;;;16.13;8.15;;;;;;;16.41;99.27;101230.34;5014928;28;20030;-82
2023/09/17 01:12:11;;;;;;;16.77;9.67;;;;;;;16.21;100.00;101234.44;5013849;28;20152;-82
2023/09/17 01:14:37;;;;;;;16.83;9.63;;;;;;;16.10;100.00;101233.94;5014336;28;20073;-81
2023/09/17 01:17:06;;;;;;;15.85;9.10;;;;;;;15.98;100.00;101229.97;5014530;28;20033;-82
2023/09/17 01:19:32;;;;;;;16.30;8.93;;;;;;;15.90;100.00;101232.81;5014189;28;20109;-82
2023/09/17 01:22:20;;;;;;;16.90;9.57;;;;;;;15.84;100.00;101224.25;5015089;28;20370;-82
2023/09/17 01:25:05;;;;;;;16.08;9.02;;;;;;;15.83;100.00;101230.41;5014079;28;20033;-81
2023/09/17 01:27:33;;;;;;;12.57;7.05;;;;;;;15.85;100.00;101215.53;5014515;28;20022;-82
2023/09/17 01:29:59;;;;;;;12.25;6.60;;;;;;;15.82;100.00;101205.16;5014715;28;20419;-82
2023/09/17 01:32:24;;;;;;;17.73;10.17;;;;;;;15.74;100.00;101214.09;5013286;28;20034;-82
2023/09/17 01:34:52;;;;;;;15.47;8.33;;;;;;;15.72;100.00;101201.97;5014013;28;20033;-82
2023/09/17 01:37:27;;;;;;;16.60;9.60;;;;;;;15.67;100.00;101206.47;5014005;28;20029;-82
2023/09/17 01:39:56;;;;;;;17.52;9.88;;;;;;;15.61;100.00;101202.28;5013656;28;20032;-82
2023/09/17 01:42:24;;;;;;;15.10;8.82;;;;;;;15.61;100.00;101202.28;5014018;28;20100;-82
2023/09/17 01:44:55;;;;;;;16.38;8.75;;;;;;;15.64;100.00;101211.81;5013568;28;20371;-82
2023/09/17 01:47:22;;;;;;;16.70;9.15;;;;;;;15.58;100.00;101205.84;5013313;28;20471;-82
2023/09/17 01:49:48;;;;;;;;;;;;;;;15.59;100.00;101204.97;5014224;28;20431;-82
2023/09/17 01:52:14;;;;;;;17.02;10.02;;;;;;;15.55;100.00;101199.88;5013741;28;19920;-82
2023/09/17 01:54:40;;;;;;;16.80;9.88;;;;;;;15.49;100.00;101193.06;5012839;28;20080;-82
2023/09/17 01:57:06;;;;;;;18.37;10.97;;;;;;;15.51;100.00;101195.63;5013577;28;20042;-82
2023/09/17 01:59:31;;;;;;;17.02;9.30;;;;;;;15.49;100.00;101184.34;5013427;28;20455;-82
2023/09/17 02:01:57;;;;;;;14.40;8.10;;;;;;;15.54;100.00;101185.06;5014060;28;20474;-82
2023/09/17 02:04:22;;;;;;;13.13;7.60;;;;;;;15.57;100.00;101180.59;5012512;28;20089;-82
2023/09/17 02:06:53;;;;;;;17.83;10.00;;;;;;;15.51;100.00;101175.56;5012815;28;20818;-82
2023/09/17 02:09:18;;;;;;;16.70;9.30;;;;;;;15.47;100.00;101173.94;5012983;28;20029;-82
2023/09/17 02:11:43;;;;;;;15.87;8.63;;;;;;;15.56;100.00;101188.50;5013460;28;20475;-82
2023/09/17 02:14:12;;;;;;;17.80;10.53;;;;;;;15.51;100.00;101188.66;5012264;28;20026;-82
2023/09/17 02:16:38;;;;;;;17.23;9.38;;;;;;;15.48;100.00;101186.13;5013406;28;20109;-82
2023/09/17 02:19:03;;;;;;;17.33;10.30;;;;;;;15.51;100.00;101196.50;5013504;28;20117;-82
2023/09/17 02:21:28;;;;;;;18.20;9.77;;;;;;;15.50;100.00;101188.69;5012482;28;20053;-82
2023/09/17 02:23:54;;;;;;;18.07;10.80;;;;;;;15.51;100.00;101187.78;5013289;28;20080;-82
2023/09/17 02:26:21;;;;;;;14.90;8.60;;;;;;;15.50;100.00;101184.31;5014227;28;20033;-82
2023/09/17 02:28:52;;;;;;;16.23;9.07;;;;;;;15.52;100.00;101179.91;5013212;28;20026;-82
2023/09/17 02:31:18;;;;;;;21.33;12.82;;;;;;;15.46;100.00;101181.84;5014714;28;20480;-82
2023/09/17 02:33:43;;;;;;;21.57;14.20;;;;;;;15.40;100.00;101182.88;5013564;28;20471;-83
2023/09/17 02:36:09;;;;;;;21.52;14.88;;;;;;;15.40;100.00;101177.66;5011702;28;20076;-81
2023/09/17 02:38:34;;;;;;;22.00;14.47;;;;;;;15.36;100.00;101161.22;5013783;28;20030;-82
2023/09/17 02:40:59;;;;;;;20.47;12.50;;;;;;;15.42;100.00;101168.00;5013309;28;20026;-82
2023/09/17 02:43:27;;;;;;;20.43;13.13;;;;;;;15.40;100.00;101154.13;5012243;28;20131;-82
2023/09/17 02:45:54;;;;;;;22.25;14.30;;;;;;;15.33;100.00;101158.69;5012868;28;20533;-82
2023/09/17 02:48:19;;;;;;;20.75;13.25;;;;;;;15.34;100.00;101141.22;5012780;28;20030;-82
2023/09/17 02:50:44;;;;;;;21.57;13.77;;;;;;;15.29;100.00;101138.75;5012368;28;20088;-82
2023/09/17 02:53:10;;;;;;;22.33;14.33;;;;;;;15.27;100.00;101140.53;5012924;28;20109;-82
2023/09/17 02:55:35;;;;;;;20.83;13.50;;;;;;;15.27;100.00;101143.16;5012959;28;20075;-82
2023/09/17 02:58:03;;;;;;;20.47;12.83;;;;;;;15.20;100.00;101144.25;5012540;28;20377;-83
2023/09/17 03:00:35;;;;;;;22.08;13.93;;;;;;;15.20;100.00;101144.25;5013178;28;20105;-82
2023/09/17 03:03:04;;;;;;;18.52;11.48;;;;;;;15.16;100.00;101143.50;5012335;28;20057;-82
2023/09/17 03:05:29;;;;;;;21.00;13.00;;;;;;;15.05;100.00;101143.78;5013190;28;20076;-81
2023/09/17 03:07:55;;;;;;;20.87;12.83;;;;;;;15.02;100.00;101146.53;5013116;28;20033;-82
2023/09/17 03:10:23;;;;;;;20.48;12.30;;;;;;;14.94;100.00;101128.44;5011854;28;20022;-82
2023/09/17 03:12:49;;;;;;;19.27;11.60;;;;;;;15.01;100.00;101141.31;5013422;28;20061;-82
2023/09/17 03:15:15;;;;;;;20.33;12.05;;;;;;;14.93;100.00;101137.19;5013060;28;20041;-82
2023/09/17 03:17:43;;;;;;;17.30;9.87;;;;;;;14.90;100.00;101128.56;5015784;28;20466;-83
2023/09/17 03:20:22;;;;;;;19.10;11.40;;;;;;;14.90;100.00;101132.03;5016527;28;20084;-82
2023/09/17 03:22:48;;;;;;;17.90;10.32;;;;;;;14.90;100.00;101133.81;5017226;28;20053;-83
2023/09/17 03:25:13;;;;;;;17.48;10.15;;;;;;;14.87;100.00;101132.13;5015812;28;20105;-83
2023/09/17 03:27:43;;;;;;;19.87;12.07;;;;;;;14.84;100.00;101137.44;5016520;28;20108;-83
2023/09/17 03:30:09;;;;;;;20.05;12.25;;;;;;;14.76;100.00;101139.41;5016687;28;20030;-83
2023/09/17 03:32:34;;;;;;;19.48;11.85;;;;;;;14.70;100.00;101134.34;5015835;28;20130;-82
2023/09/17 03:35:01;;;;;;;19.03;11.27;;;;;;;14.72;100.00;101138.63;5016564;28;20045;-84
2023/09/17 03:37:26;;;;;;;21.20;13.25;;;;;;;14.67;100.00;101130.09;5016175;28;20029;-83
2023/09/17 03:40:10;;;;;;;20.00;12.87;;;;;;;14.67;100.00;101132.69;5016056;28;20025;-83
2023/09/17 03:42:39;;;;;;;19.15;11.93;;;;;;;14.67;100.00;101133.53;5016600;28;20057;-83
2023/09/17 03:45:09;;;;;;;16.67;9.40;;;;;;;14.72;100.00;101132.56;5015451;28;20022;-83
2023/09/17 03:47:38;;;;;;;16.92;9.60;;;;;;;14.73;100.00;101131.66;5016655;28;20414;-84
2023/09/17 03:50:04;;;;;;;13.60;7.60;;;;;;;14.69;100.00;101112.63;5016222;28;20029;-84
2023/09/17 03:52:31;;;;;;;15.40;8.77;;;;;;;14.79;100.00;101137.59;5015839;28;20026;-83
2023/09/17 03:54:56;;;;;;;21.80;12.60;;;;;;;14.72;100.00;101127.34;5016106;28;20056;-82
2023/09/17 03:57:22;;;;;;;16.13;9.57;;;;;;;14.79;100.00;101134.09;5016543;28;20558;-84
2023/09/17 03:59:47;;;;;;;19.73;12.18;;;;;;;14.74;100.00;101136.84;5015816;28;20079;-84
2023/09/17 04:02:13;;;;;;;18.90;11.80;;;;;;;14.72;100.00;101138.63;5016322;28;20489;-83
2023/09/17 04:04:38;;;;;;;19.30;12.07;;;;;;;14.72;100.00;101135.19;5015808;28;20089;-83
2023/09/17 04:07:04;;;;;;;21.37;13.10;;;;;;;14.67;100.00;101137.94;5015350;28;20026;-83
2023/09/17 04:09:30;;;;;;;21.90;14.07;;;;;;;14.65;100.00;101135.31;5015775;28;20168;-83
2023/09/17 04:11:55;;;;;;;19.63;11.65;;;;;;;14.68;100.00;101129.19;5018130;28;20026;-83
2023/09/17 04:14:21;;;;;;;15.10;8.50;;;;;;;14.71;100.00;101130.84;5016409;28;20364;-83
2023/09/17 04:16:46;;;;;;;17.30;10.35;;;;;;;14.77;100.00;101123.69;5016215;28;20026;-83
2023/09/17 04:19:12;;;;;;;14.23;7.70;;;;;;;14.83;100.00;101131.34;5015355;28;20037;-83
2023/09/17 04:21:37;;;;;;;10.63;6.20;;;;;;;14.87;100.00;101126.88;5014891;28;20022;-83
2023/09/17 04:24:03;;;;;;;9.87;6.00;;;;;;;14.81;100.00;101109.63;5015381;28;20021;-83
2023/09/17 04:26:30;;;;;;;9.80;5.97;;;;;;;14.93;100.00;101129.34;5015871;28;20036;-83
2023/09/17 04:28:56;;;;;;;8.02;4.80;;;;;;;14.95;100.00;101119.72;5014231;28;20052;-83
2023/09/17 04:31:21;;;;;;;8.10;5.13;;;;;;;15.02;100.00;101127.34;5015060;28;20531;-83
2023/09/17 04:33:47;;;;;;;6.80;4.20;;;;;;;15.05;100.00;101127.28;5015382;28;20105;-83
2023/09/17 04:36:12;;;;;;;5.10;3.47;;;;;;;15.10;100.00;101123.63;5014562;28;20029;-84
2023/09/17 04:38:38;;;;;;;6.13;3.90;;;;;;;15.10;100.00;101123.63;5015232;28;20057;-83
2023/09/17 04:41:04;;;;;;;5.53;3.47;;;;;;;15.13;100.00;101122.66;5015051;28;20078;-83
2023/09/17 04:43:29;;;;;;;3.03;2.73;;;;;;;15.15;100.00;101120.88;5014718;28;20030;-83
2023/09/17 04:45:55;;;;;;;3.87;2.90;;;;;;;15.21;100.00;101128.50;5015309;28;20448;-83
2023/09/17 04:48:20;;;;;;;3.20;2.90;;;;;;;15.25;100.00;101116.22;5014104;28;20463;-83
2023/09/17 04:50:46;;;;;;;2.90;2.60;;;;;;;15.27;100.00;101115.25;5015385;28;20080;-83
2023/09/17 04:53:12;;;;;;;3.05;2.50;;;;;;;15.30;100.00;101109.06;5015080;28;20030;-83
2023/09/17 04:55:38;;;;;;;7.82;4.65;;;;;;;15.37;100.00;101110.59;5014471;28;20042;-83
2023/09/17 04:58:03;;;;;;;5.30;3.67;;;;;;;15.38;100.00;101108.84;5015035;28;20029;-83
2023/09/17 05:00:29;;;;;;;4.57;3.10;;;;;;;15.36;100.00;101108.91;5015503;28;20525;-84
2023/09/17 05:02:54;;;;;;;4.10;3.10;;;;;;;15.42;100.00;101113.09;5014549;28;20117;-84
2023/09/17 05:05:20;;;;;;;4.93;3.20;;;;;;;15.41;100.00;101117.44;5014759;28;20375;-84
2023/09/17 05:07:48;;;;;;;3.73;2.97;;;;;;;15.42;100.00;101119.16;5014902;28;20057;-83
2023/09/17 05:10:15;;;;;;;3.42;2.92;;;;;;;15.44;100.00;101125.19;5013743;28;20041;-83
2023/09/17 05:12:43;;;;;;;4.00;2.90;;;;;;;15.47;100.00;101121.63;5014919;28;20025;-84
2023/09/17 05:15:10;;;;;;;3.00;2.53;;;;;;;15.49;100.00;101122.44;5014468;28;20033;-84
2023/09/17 05:17:36;;;;;;;3.05;2.50;;;;;;;15.53;100.00;101116.22;5014048;28;20049;-84
2023/09/17 05:20:05;;;;;;;2.90;2.55;;;;;;;15.58;100.00;101127.38;5015253;28;20367;-84
2023/09/17 05:22:31;;;;;;;2.78;2.55;;;;;;;15.59;100.00;101123.88;5014691;28;20475;-84
2023/09/17 05:24:57;;;;;;;11.23;6.57;;;;;;;15.53;100.00;101126.69;5013800;28;20080;-83
2023/09/17 05:27:24;;;;;;;11.77;6.43;;;;;;;15.49;100.00;101127.69;5014461;28;20363;-83
2023/09/17 05:29:50;;;;;;;8.65;5.38;;;;;;;15.48;100.00;101128.56;5014233;28;20364;-84
2023/09/17 05:32:16;;;;;;;6.77;4.50;;;;;;;15.49;100.00;101124.19;5013600;28;20048;-84
2023/09/17 05:34:44;;;;;;;6.43;4.00;;;;;;;15.47;100.00;101120.78;5014289;28;20276;-84
2023/09/17 05:37:09;;;;;;;4.88;3.50;;;;;;;15.52;100.00;101122.34;5013727;28;20540;-84
2023/09/17 05:39:35;;;;;;;4.30;3.23;;;;;;;15.60;100.00;101135.16;5013473;28;20112;-84
2023/09/17 05:42:00;;;;;;;3.77;2.93;;;;;;;15.62;100.00;101133.38;5014151;28;20033;-83
2023/09/17 05:44:25;;;;;;;4.60;3.33;;;;;;;15.62;100.00;101135.97;5013441;28;20065;-83
2023/09/17 05:46:51;;;;;;;3.93;3.00;;;;;;;15.62;100.00;101135.13;5014584;28;20022;-83
2023/09/17 05:49:16;;;;;;;4.20;2.90;;;;;;;15.60;100.00;101132.56;5014528;28;20037;-83
2023/09/17 05:51:41;;;;;;;3.00;2.70;;;;;;;15.61;100.00;101139.50;5013366;28;20085;-82
2023/09/17 05:54:07;;;;;;;3.70;3.00;;;;;;;15.65;100.00;101135.06;5014568;28;20116;-83
2023/09/17 05:56:32;;;;;;;3.13;2.53;;;;;;;15.59;100.00;101121.25;5013506;28;20050;-83
2023/09/17 05:58:57;;;;;;;2.70;2.40;;;;;;;15.68;100.00;101133.19;5014171;28;20026;-83
2023/09/17 06:01:23;;;;;;;3.90;2.80;;;;;;;15.66;100.00;101127.13;5013689;28;20014;-83
2023/09/17 06:03:48;;;;;;;3.43;2.63;;;;;;;15.66;100.00;101124.53;5013729;28;20029;-83
2023/09/17 06:06:13;;;;;;;3.07;2.40;;;;;;;15.69;100.00;101126.19;5012947;28;20076;-83
2023/09/17 06:08:39;;;;;;;2.80;2.40;;;;;;;15.74;100.00;101135.59;5013718;28;20026;-83
2023/09/17 06:11:04;;;;;;;3.90;2.77;;;;;;;15.73;100.00;101128.63;5013237;28;20046;-83
2023/09/17 06:13:29;;;;;;;5.43;3.60;;;;;;;15.74;100.00;101125.13;5012865;28;20125;-83
2023/09/17 06:15:55;;;;;;;3.17;2.80;;;;;;;15.73;100.00;101122.56;5013869;28;20113;-83
2023/09/17 06:18:20;;;;;;;3.00;2.70;;;;;;;15.70;100.00;101120.91;5012926;28;20034;-83
2023/09/17 06:20:46;;;;;;;3.10;2.57;;;;;;;15.80;100.00;101126.69;5008898;28;20109;-83
2023/09/17 06:23:11;;;;;;;2.85;2.40;;;;;;;15.83;100.00;101137.06;5009395;28;20018;-83
2023/09/17 06:25:37;;;;;;;2.87;2.40;;;;;;;15.85;100.00;101129.19;5008037;28;20026;-83
2023/09/17 06:28:04;;;;;;;2.30;2.10;;;;;;;15.89;100.00;101128.19;5001528;28;20033;-84
2023/09/17 06:30:29;;;;;;;2.65;2.28;;;;;;;15.93;100.00;101126.31;5000405;28;20126;-82
2023/09/17 06:32:54;;;;;;;2.80;2.37;;;;;;;15.96;100.00;101124.44;4993713;28;20121;-82
2023/09/17 06:35:20;;;;;;;3.40;2.40;;;;;;;15.94;100.00;101114.94;4992592;28;20025;-83
2023/09/17 06:37:45;;;;;;;2.50;2.30;;;;;;;16.03;100.00;101125.97;4993567;28;20022;-82
2023/09/17 06:40:13;;;;;;;2.30;2.10;;;;;;;16.09;100.00;101130.16;4993747;28;20018;-83
2023/09/17 06:42:39;;;;;;;2.67;2.30;;;;;;;16.09;100.00;101122.28;4992763;28;20070;-79
2023/09/17 06:45:05;;;;;;;3.40;2.73;;;;;;;16.14;100.00;101128.22;5003376;28;20068;-81
2023/09/17 06:47:30;;;;;;;2.25;2.05;;;;;;;16.14;100.00;101132.59;5013197;28;20029;-86
2023/09/17 06:49:56;;;;;;;2.33;2.13;;;;;;;16.15;100.00;101126.47;5012166;28;20533;-86
2023/09/17 06:52:23;;;;;;;2.40;2.20;;;;;;;16.19;100.00;101134.16;5012126;28;20076;-87
2023/09/17 06:54:49;;;;;;;2.53;2.33;;;;;;;16.19;100.00;101122.81;5013819;28;20040;-90
2023/09/17 06:57:14;;;;;;;2.13;1.93;;;;;;;16.23;100.00;101129.66;5012749;28;20085;-89
2023/09/17 06:59:40;;;;;;;1.70;1.60;;;;;;;16.19;100.00;101113.22;5011695;28;20306;-87
2023/09/17 07:02:05;;;;;;;2.20;2.00;;;;;;;16.29;100.00;101120.75;5005232;28;20026;-87
2023/09/17 07:04:30;;;;;;;2.17;2.00;;;;;;;16.30;100.00;101120.69;5013130;28;20018;-87
2023/09/17 07:07:00;;;;;;;9.83;5.47;;;;;;;16.35;100.00;101120.50;5012854;28;20026;-87
2023/09/17 07:09:26;;;;;;;8.45;5.50;;;;;;;16.38;100.00;101120.41;5012401;28;20474;-87
2023/09/17 07:11:51;;;;;;;7.87;4.53;;;;;;;16.42;100.00;101119.41;5014355;28;20033;-90
2023/09/17 07:14:16;;;;;;;5.83;3.80;;;;;;;16.47;100.00;101130.56;5013632;28;20029;-89
2023/09/17 07:16:42;;;;;;;3.87;3.13;;;;;;;16.49;100.00;101126.13;5013294;28;20113;-89
2023/09/17 07:19:08;;;;;;;3.65;2.92;;;;;;;16.51;100.00;101124.31;5014038;28;20487;-91
2023/09/17 07:21:33;;;;;;;2.60;2.40;;;;;;;16.57;100.00;101127.59;5014047;28;20032;-90
2023/09/17 07:23:59;;;;;;;3.10;2.30;;;;;;;16.60;100.00;101131.00;5013444;28;20113;-90
2023/09/17 07:26:24;;;;;;;6.10;3.90;;;;;;;16.64;100.00;101129.13;5013894;28;20037;-91
2023/09/17 07:28:49;;;;;;;9.60;5.43;;;;;;;16.65;100.00;101123.81;5015063;28;20026;-82
2023/09/17 07:31:15;;;;;;;5.17;3.73;;;;;;;16.69;100.00;101127.16;5012519;28;20018;-88
2023/09/17 07:33:42;;;;;;;12.27;7.07;;;;;;;16.71;100.00;101111.41;5013442;28;20022;-87
2023/09/17 07:36:09;;;;;;;17.73;10.40;;;;;;;16.77;100.00;101119.91;5012307;28;20026;-88
2023/09/17 07:38:35;;;;;;;13.18;7.63;;;;;;;16.78;100.00;101118.97;5013520;28;20105;-92
2023/09/17 07:41:02;;;;;;;12.23;7.20;;;;;;;16.83;100.00;101113.56;5013300;28;20109;-87
2023/09/17 07:43:28;;;;;;;8.57;5.38;;;;;;;16.87;100.00;101109.06;5012249;28;20040;-85
2023/09/17 07:45:53;;;;;;;5.90;4.30;;;;;;;16.93;100.00;101116.69;5004547;28;20026;-86
2023/09/17 07:48:20;;;;;;;12.80;7.37;;;;;;;16.98;100.00;101113.00;5012309;28;20104;-86
2023/09/17 07:50:56;;;;;;;20.83;14.23;;;;;;;16.98;100.00;101115.63;5012719;28;20041;-86
2023/09/17 07:53:22;;;;;;;20.67;13.20;;;;;;;17.03;100.00;101122.47;5011661;28;20743;-86
2023/09/17 07:55:47;;;;;;;20.27;13.07;;;;;;;17.05;100.00;101126.75;5012313;28;20054;-86
2023/09/17 07:58:12;;;;;;;19.90;12.47;;;;;;;17.02;100.00;101126.84;5011575;28;20382;-86
2023/09/17 08:00:38;;;;;;;16.40;9.87;;;;;;;17.09;100.00;101132.72;5012561;28;20122;-86
2023/09/17 08:03:05;;;;;;;11.57;7.03;;;;;;;17.11;100.00;101126.50;5013443;28;20033;-87
2023/09/17 08:05:33;;;;;;;12.30;7.07;;;;;;;17.12;100.00;101133.47;5015583;28;20030;-87
2023/09/17 08:07:58;;;;;;;14.02;8.25;;;;;;;17.17;100.00;101135.91;5016910;28;20375;-87
2023/09/17 08:10:24;;;;;;;11.30;6.23;;;;;;;17.19;100.00;101136.69;5016914;28;20037;-87
2023/09/17 08:12:49;;;;;;;7.13;4.90;;;;;;;17.25;100.00;101139.09;5011532;28;20034;-87
2023/09/17 08:15:16;;;;;;;5.57;4.10;;;;;;;17.27;100.00;101137.28;5005434;28;20021;-87
2023/09/17 08:17:43;;;;;;;6.30;4.30;;;;;;;17.35;100.00;101138.75;5006601;28;20390;-87
2023/09/17 08:20:09;;;;;;;5.97;4.35;;;;;;;17.37;100.00;101143.00;5004213;28;20033;-86
2023/09/17 08:22:35;;;;;;;7.85;5.07;;;;;;;17.45;100.00;101143.56;5005543;28;20028;-86
2023/09/17 08:25:01;;;;;;;7.23;4.20;;;;;;;17.47;100.00;101143.50;5006454;28;20105;-86
2023/09/17 08:27:26;;;;;;;5.03;3.65;;;;;;;17.52;100.00;101146.78;5014404;28;20084;-86
2023/09/17 08:29:52;;;;;;;4.13;3.33;;;;;;;17.56;100.00;101147.53;5015375;28;20022;-84
2023/09/17 08:32:18;;;;;;;6.73;4.53;;;;;;;17.57;100.00;101146.59;5014652;28;20029;-86
2023/09/17 08:34:43;;;;;;;8.23;5.13;;;;;;;17.57;100.00;101144.84;5014709;28;20033;-86
2023/09/17 08:37:08;;;;;;;7.17;4.87;;;;;;;17.55;100.00;101141.44;5015345;28;20026;-86
2023/09/17 08:39:34;;;;;;;6.63;4.57;;;;;;;17.53;100.00;101138.00;5015403;28;20026;-87
2023/09/17 08:42:00;;;;;;;6.40;4.43;;;;;;;17.54;100.00;101129.22;5014964;28;20026;-86
2023/09/17 08:44:27;;;;;;;5.28;3.88;;;;;;;17.66;100.00;101143.63;5015120;28;20076;-87
2023/09/17 08:46:55;;;;;;;6.97;4.20;;;;;;;17.69;100.00;101137.41;5015289;28;20052;-86
2023/09/17 08:49:21;;;;;;;18.27;10.43;;;;;;;17.71;100.00;101135.56;5014352;28;20100;-86
2023/09/17 08:51:48;;;;;;;14.60;8.27;;;;;;;17.74;100.00;101140.69;5015339;28;20067;-86
2023/09/17 08:54:21;;;;;;;12.38;6.97;;;;;;;17.80;100.00;101144.81;5014874;28;20113;-87
2023/09/17 08:56:48;;;;;;;10.35;5.85;;;;;;;17.85;100.00;101153.38;5014114;28;20052;-87
2023/09/17 08:59:26;;;;;;;8.55;5.03;;;;;;;17.90;100.00;101154.06;5015043;28;20437;-86
2023/09/17 09:01:53;;;;;;;6.57;4.40;;;;;;;17.94;100.00;101160.88;5014494;28;20026;-87
2023/09/17 09:04:19;;;;;;;;;;;;;;;17.98;100.00;101169.50;5015846;28;20121;-87
2023/09/17 09:06:45;;;;;;;;;;;;;;;18.02;100.00;101166.69;5016101;28;19970;-87
2023/09/17 09:09:10;;;;;;;8.43;4.88;;;;;;;18.05;100.00;101163.09;5014582;28;20388;-85
2023/09/17 09:11:36;;;;;;;9.30;5.37;;;;;;;18.12;100.00;101161.91;5014822;28;20022;-85
2023/09/17 09:14:06;;;;;;;8.15;4.97;;;;;;;18.16;100.00;101166.13;5015050;28;20133;-88
2023/09/17 09:16:37;;;;;;;6.45;4.40;;;;;;;18.19;100.00;101167.75;5014314;28;20108;-87
2023/09/17 09:19:03;;;;;;;6.05;4.10;;;;;;;18.29;100.00;101178.75;5014994;28;20129;-85
2023/09/17 09:21:28;;;;;;;5.28;3.70;;;;;;;18.26;100.00;101163.09;5014965;28;20032;-85
2023/09/17 09:24:00;;;;;;;4.80;3.40;;;;;;;18.36;100.00;101174.94;5013775;28;20037;-86
2023/09/17 09:26:36;;;;;;;4.22;3.20;;;;;;;18.42;100.00;101179.06;5013967;28;20108;-85
2023/09/17 09:29:04;;;;;;;4.53;3.22;;;;;;;18.43;100.00;101172.91;5014303;28;20045;-85
2023/09/17 09:31:29;;;;;;;6.57;4.45;;;;;;;18.49;100.00;101176.13;5013800;28;20078;-85
2023/09/17 09:34:02;;;;;;;6.40;4.25;;;;;;;18.53;100.00;101163.69;5014320;28;20471;-85
2023/09/17 09:36:30;;;;;;;7.72;4.97;;;;;;;18.57;100.00;101162.66;5014459;28;20032;-85
2023/09/17 09:38:56;;;;;;;6.30;4.13;;;;;;;18.64;100.00;101165.84;5013188;28;20030;-86
2023/09/17 09:41:23;;;;;;;5.25;3.67;;;;;;;18.63;100.00;101156.28;5013769;28;20032;-85
2023/09/17 09:43:49;;;;;;;5.57;3.90;;;;;;;18.63;100.00;101159.72;5013764;28;20370;-86
2023/09/17 09:46:14;;;;;;;4.55;3.30;;;;;;;18.63;100.00;101161.53;5014519;28;20018;-86
2023/09/17 09:48:40;;;;;;;3.20;2.90;;;;;;;18.63;100.00;101162.38;5017361;28;20062;-86
2023/09/17 09:51:06;;;;;;;4.97;3.20;;;;;;;18.65;100.00;101160.53;5013483;28;20076;-85
2023/09/17 09:53:34;;;;;;;3.90;3.07;;;;;;;18.64;100.00;101163.19;5014319;28;20153;-85
2023/09/17 09:56:00;;;;;;;3.20;2.88;;;;;;;18.61;100.00;101160.72;5013641;28;20034;-85
2023/09/17 09:58:25;;;;;;;5.40;3.57;;;;;;;18.62;100.00;101159.81;5013634;28;20387;-85
2023/09/17 10:00:54;;;;;;;7.67;4.20;;;;;;;18.59;100.00;101166.03;5014901;28;20064;-85
2023/09/17 10:03:20;;;;;;;4.82;3.40;;;;;;;18.58;100.00;101164.31;5014824;28;20144;-85
2023/09/17 10:05:46;;;;;;;10.52;5.80;;;;;;;18.56;100.00;101158.31;5015002;28;20021;-86
2023/09/17 10:08:17;;;;;;;7.30;4.35;;;;;;;18.57;100.00;101162.66;5013574;28;20040;-85
2023/09/17 10:10:42;;;;;;;9.32;5.00;;;;;;;18.50;100.00;101162.06;5014364;28;20026;-85
2023/09/17 10:13:10;;;;;;;6.53;4.38;;;;;;;18.56;100.00;101162.69;5014381;28;20084;-85
2023/09/17 10:15:37;;;;;;;5.32;3.60;;;;;;;18.57;100.00;101165.28;5015204;28;20036;-85
2023/09/17 10:18:10;;;;;;;4.40;3.20;;;;;;;18.61;100.00;101156.31;5011824;28;20137;-85
2023/09/17 10:20:37;;;;;;;3.67;3.03;;;;;;;18.71;100.00;101153.28;5013661;28;20529;-85
2023/09/17 10:23:04;;;;;;;10.23;5.70;;;;;;;18.83;100.00;101150.97;5015076;28;20106;-83
2023/09/17 10:25:30;;;;;;;11.77;5.90;;;;;;;18.88;100.00;101149.88;5013010;28;20529;-82
2023/09/17 10:27:56;;;;;;;14.67;7.77;;;;;;;18.85;100.00;101145.63;5013900;28;20033;-83
2023/09/17 10:30:22;;;;;;;12.95;6.38;;;;;;;18.94;100.00;101147.03;5014587;28;20033;-84
2023/09/17 10:32:48;;;;;;;14.30;7.43;;;;;;;19.01;100.00;101144.97;5015022;28;20034;-84
2023/09/17 10:35:14;;;;;;;10.43;6.20;;;;;;;19.10;100.00;101137.47;5012487;28;20022;-84
2023/09/17 10:37:40;;;;;;;10.18;5.40;;;;;;;19.22;100.00;101145.72;5013832;28;20112;-84
2023/09/17 10:40:12;;;;;;;7.65;4.55;;;;;;;19.33;100.00;101145.25;5012331;28;20053;-84
2023/09/17 10:42:40;;;;;;;9.07;5.07;;;;;;;19.42;100.00;101152.69;5013922;28;20049;-84
2023/09/17 10:45:10;;;;;;;10.10;5.68;;;;;;;19.45;100.00;101155.19;5014261;28;20022;-85
2023/09/17 10:47:38;;;;;;;8.82;5.28;;;;;;;19.52;100.00;101143.44;5013198;28;20084;-84
2023/09/17 10:50:06;;;;;;;8.35;4.95;;;;;;;19.58;100.00;101143.16;5008236;28;20053;-85
2023/09/17 10:52:32;;;;;;;7.80;4.55;;;;;;;19.66;100.00;101141.91;5010551;28;20459;-84
2023/09/17 10:54:58;;;;;;;6.72;4.20;;;;;;;19.71;100.00;101140.75;5013017;28;20036;-84
2023/09/17 10:57:44;;;;;;;8.77;4.70;;;;;;;19.78;100.00;101143.94;5003046;28;20019;-84
2023/09/17 11:00:15;;;;;;;10.55;5.70;;;;;;;19.74;100.00;101130.09;5013291;28;20057;-85
2023/09/17 11:02:46;;;;;;;9.57;5.30;;;;;;;19.81;100.00;101133.25;5012834;28;20018;-85
2023/09/17 11:05:16;;;;;;;7.15;4.47;;;;;;;19.95;100.00;101137.88;5007704;28;20056;-84
2023/09/17 11:07:42;;;;;;;7.60;4.60;;;;;;;20.00;100.00;101133.19;5003588;28;20049;-84
2023/09/17 11:10:10;;;;;;;;;;;;;;;20.16;100.00;101140.34;5013505;28;20483;-84
2023/09/17 11:12:38;;;;;;;7.75;4.53;;;;;;;20.26;100.00;101143.38;5013386;28;20359;-85